createdAt,value
2022-08-30T00:00:43.710Z,100886.27
2022-08-30T00:04:12.468Z,100891.23
2022-08-30T00:07:40.338Z,100891.67
2022-08-30T00:11:10.258Z,100897.98
2022-08-30T00:14:40.075Z,100897.83
2022-08-30T00:18:07.850Z,100897.35
2022-08-30T00:21:34.967Z,100893.98
2022-08-30T00:25:06.630Z,100895.17
2022-08-30T00:28:35.427Z,100893.60
2022-08-30T00:32:03.034Z,100896.76
2022-08-30T00:35:32.956Z,100895.05
2022-08-30T00:39:00.427Z,100897.59
2022-08-30T00:42:28.717Z,100897.89
2022-08-30T00:45:57.110Z,100895.69
2022-08-30T00:49:25.061Z,100896.89
2022-08-30T00:52:56.103Z,100901.10
2022-08-30T00:56:25.422Z,100897.89
2022-08-30T00:59:56.367Z,100893.99
2022-08-30T01:03:24.255Z,100895.04
2022-08-30T01:06:55.189Z,100898.47
2022-08-30T01:10:25.723Z,100897.46
2022-08-30T01:13:55.306Z,100900.08
2022-08-30T01:17:27.269Z,100900.02
2022-08-30T01:21:02.923Z,100893.44
2022-08-30T01:24:30.583Z,100897.12
2022-08-30T01:28:01.962Z,100897.49
2022-08-30T01:31:30.176Z,100897.05
2022-08-30T01:35:02.762Z,100899.71
2022-08-30T01:38:39.134Z,100903.52
2022-08-30T01:42:08.254Z,100905.59
2022-08-30T01:45:39.191Z,100908.63
2022-08-30T01:49:09.837Z,100916.31
2022-08-30T01:52:39.422Z,100916.50
2022-08-30T01:56:08.480Z,100913.48
2022-08-30T01:59:36.867Z,100916.17
2022-08-30T02:03:04.168Z,100917.26
2022-08-30T02:06:34.718Z,100918.65
2022-08-30T02:10:02.234Z,100919.77
2022-08-30T02:13:30.993Z,100920.94
2022-08-30T02:16:58.244Z,100921.45
2022-08-30T02:20:25.789Z,100925.96
2022-08-30T02:23:53.972Z,100924.03
2022-08-30T02:27:21.662Z,100918.96
2022-08-30T02:30:49.725Z,100909.13
2022-08-30T02:34:18.180Z,100906.89
2022-08-30T02:37:46.232Z,100908.92
2022-08-30T02:41:15.819Z,100908.06
2022-08-30T02:44:46.545Z,100906.34
2022-08-30T02:48:14.215Z,100901.67
2022-08-30T02:51:40.764Z,100898.84
2022-08-30T02:55:09.964Z,100899.84
2022-08-30T02:58:38.198Z,100898.73
2022-08-30T03:02:11.238Z,100902.48
2022-08-30T03:05:39.966Z,100904.23
2022-08-30T03:09:08.468Z,100909.74
2022-08-30T03:12:35.654Z,100910.84
2022-08-30T03:16:03.359Z,100912.94
2022-08-30T03:19:30.874Z,100913.55
2022-08-30T03:22:58.785Z,100917.36
2022-08-30T03:26:26.731Z,100916.17
2022-08-30T03:29:55.591Z,100918.90
2022-08-30T03:33:22.945Z,100916.61
2022-08-30T03:36:55.171Z,100916.91
2022-08-30T03:40:25.237Z,100920.83
2022-08-30T03:44:00.113Z,100923.52
2022-08-30T03:47:28.040Z,100925.71
2022-08-30T03:50:55.418Z,100929.67
2022-08-30T03:54:24.843Z,100931.85
2022-08-30T03:57:52.142Z,100930.80
2022-08-30T04:01:22.629Z,100928.03
2022-08-30T04:04:52.707Z,100926.84
2022-08-30T04:08:23.074Z,100925.25
2022-08-30T04:11:50.448Z,100931.70
2022-08-30T04:15:21.238Z,100940.00
2022-08-30T04:18:52.255Z,100940.33
2022-08-30T04:22:20.815Z,100944.73
2022-08-30T04:25:47.826Z,100950.10
2022-08-30T04:29:16.886Z,100953.70
2022-08-30T04:32:44.184Z,100959.67
2022-08-30T04:36:13.981Z,100961.42
2022-08-30T04:39:42.842Z,100966.48
2022-08-30T04:43:11.803Z,100964.23
2022-08-30T04:46:44.799Z,100967.36
2022-08-30T04:50:14.513Z,100969.00
2022-08-30T04:53:41.887Z,100971.36
2022-08-30T04:57:10.515Z,100976.23
2022-08-30T05:00:37.593Z,100980.00
2022-08-30T05:04:07.435Z,100978.92
2022-08-30T05:07:35.666Z,100981.06
2022-08-30T05:11:06.059Z,100980.59
2022-08-30T05:14:35.622Z,100980.05
2022-08-30T05:18:02.919Z,100978.84
2022-08-30T05:21:30.650Z,100984.57
2022-08-30T05:24:57.910Z,100989.11
2022-08-30T05:28:26.323Z,100990.73
2022-08-30T05:31:54.053Z,100992.46
2022-08-30T05:35:25.537Z,100993.25
2022-08-30T05:38:53.645Z,100997.30
2022-08-30T05:42:21.161Z,100994.79
2022-08-30T05:46:02.878Z,100998.77
2022-08-30T05:49:31.200Z,100998.97
2022-08-30T05:52:58.302Z,100997.12
2022-08-30T05:56:28.755Z,100994.77
2022-08-30T06:00:01.062Z,100992.90
2022-08-30T06:03:29.082Z,100994.98
2022-08-30T06:07:04.286Z,100992.65
2022-08-30T06:10:32.280Z,100994.34
2022-08-30T06:14:02.801Z,100995.08
2022-08-30T06:17:30.290Z,101000.67
2022-08-30T06:20:57.625Z,101001.20
2022-08-30T06:24:35.985Z,101003.23
2022-08-30T06:28:12.183Z,100999.27
2022-08-30T06:31:42.098Z,101004.84
2022-08-30T06:35:10.529Z,101005.62
2022-08-30T06:38:41.834Z,101006.17
2022-08-30T06:42:09.575Z,101003.67
2022-08-30T06:45:47.277Z,101005.23
2022-08-30T06:49:18.167Z,101011.77
2022-08-30T06:52:46.190Z,101014.52
2022-08-30T06:56:16.754Z,101015.87
2022-08-30T06:59:43.776Z,101020.01
2022-08-30T07:03:11.032Z,101018.11
2022-08-30T07:06:38.058Z,101027.16
2022-08-30T07:10:06.894Z,101025.88
2022-08-30T07:13:34.013Z,101026.69
2022-08-30T07:17:01.272Z,101029.75
2022-08-30T07:20:28.358Z,101039.12
2022-08-30T07:24:10.376Z,101040.36
2022-08-30T07:27:39.000Z,101044.29
2022-08-30T07:34:38.532Z,101050.98
2022-08-30T07:38:05.867Z,101054.24
2022-08-30T07:41:39.019Z,101058.73
2022-08-30T07:45:08.448Z,101056.54
2022-08-30T07:48:36.199Z,101062.20
2022-08-30T07:52:05.209Z,101068.88
2022-08-30T07:55:31.985Z,101070.96
2022-08-30T07:58:59.921Z,101069.98
2022-08-30T08:02:27.256Z,101066.45
2022-08-30T08:05:55.097Z,101066.45
2022-08-30T08:09:22.249Z,101067.40
2022-08-30T08:12:49.957Z,101069.11
2022-08-30T08:16:19.665Z,101072.19
2022-08-30T08:19:46.959Z,101071.99
2022-08-30T08:23:13.922Z,101075.20
2022-08-30T08:26:45.209Z,101079.87
2022-08-30T08:30:14.610Z,101078.14
2022-08-30T08:33:42.398Z,101072.91
2022-08-30T08:37:09.662Z,101069.66
2022-08-30T08:40:47.674Z,101073.48
2022-08-30T08:44:37.444Z,101075.98
2022-08-30T08:48:10.285Z,101079.92
2022-08-30T08:51:58.534Z,101085.53
2022-08-30T08:55:28.893Z,101088.17
2022-08-30T08:58:58.183Z,101085.44
2022-08-30T09:02:32.458Z,101081.11
2022-08-30T09:06:00.790Z,101075.75
2022-08-30T09:09:33.538Z,101081.10
2022-08-30T09:13:00.829Z,101089.52
2022-08-30T09:16:55.240Z,101086.80
2022-08-30T09:20:32.423Z,101084.56
2022-08-30T09:24:04.937Z,101085.66
2022-08-30T09:27:36.457Z,101088.23
2022-08-30T09:31:12.189Z,101089.98
2022-08-30T09:34:45.778Z,101090.66
2022-08-30T09:38:13.381Z,101095.46
2022-08-30T09:41:44.218Z,101092.19
2022-08-30T09:45:42.199Z,101090.08
2022-08-30T09:49:37.404Z,101092.05
2022-08-30T09:57:13.361Z,101094.71
2022-08-30T10:00:44.038Z,101098.31
2022-08-30T10:04:21.722Z,101097.27
2022-08-30T10:08:00.663Z,101097.33
2022-08-30T10:11:34.678Z,101101.62
2022-08-30T10:15:09.895Z,101106.40
2022-08-30T10:18:45.379Z,101104.27
2022-08-30T10:22:24.307Z,101101.48
2022-08-30T10:25:55.331Z,101107.59
2022-08-30T10:29:30.604Z,101106.80
2022-08-30T10:33:06.940Z,101099.80
2022-08-30T10:36:41.752Z,101101.03
2022-08-30T10:40:34.443Z,101107.92
2022-08-30T10:44:07.984Z,101103.02
2022-08-30T10:47:42.058Z,101097.73
2022-08-30T10:51:15.774Z,101093.39
2022-08-30T10:54:48.782Z,101089.23
2022-08-30T10:58:20.000Z,101094.59
2022-08-30T11:02:21.358Z,101095.75
2022-08-30T11:06:13.967Z,101096.50
2022-08-30T11:09:55.702Z,101090.77
2022-08-30T11:13:33.167Z,101084.28
2022-08-30T11:17:03.024Z,101088.92
2022-08-30T11:20:40.120Z,101093.63
2022-08-30T11:24:12.980Z,101097.40
2022-08-30T11:27:56.471Z,101096.69
2022-08-30T11:31:40.632Z,101101.88
2022-08-30T11:35:11.204Z,101098.15
2022-08-30T11:39:05.843Z,101094.72
2022-08-30T11:46:36.953Z,101092.75
2022-08-30T11:50:11.176Z,101086.98
2022-08-30T11:53:51.278Z,101084.05
2022-08-30T11:57:31.495Z,101085.94
2022-08-30T12:01:42.038Z,101091.70
2022-08-30T12:05:10.326Z,101083.34
2022-08-30T12:08:56.563Z,101085.13
2022-08-30T12:12:53.449Z,101082.89
2022-08-30T12:16:23.853Z,101075.55
2022-08-30T12:19:51.083Z,101078.93
2022-08-30T12:23:27.152Z,101071.73
2022-08-30T12:26:55.655Z,101078.37
2022-08-30T12:30:32.961Z,101074.59
2022-08-30T12:34:04.563Z,101064.80
2022-08-30T12:37:42.295Z,101067.61
2022-08-30T12:41:19.449Z,101067.62
2022-08-30T12:44:51.258Z,101066.95
2022-08-30T12:48:20.448Z,101068.24
2022-08-30T12:51:49.363Z,101066.59
2022-08-30T12:55:21.332Z,101067.62
2022-08-30T12:58:52.176Z,101064.89
2022-08-30T13:02:23.095Z,101067.35
2022-08-30T13:05:53.346Z,101060.33
2022-08-30T13:09:32.336Z,101059.48
2022-08-30T13:13:08.816Z,101062.07
2022-08-30T13:16:45.441Z,101057.32
2022-08-30T13:20:28.947Z,101053.75
2022-08-30T13:24:00.071Z,101055.73
2022-08-30T13:27:33.192Z,101057.70
2022-08-30T13:31:03.545Z,101060.45
2022-08-30T13:34:43.990Z,101057.13
2022-08-30T13:38:12.423Z,101050.80
2022-08-30T13:41:42.205Z,101050.84
2022-08-30T13:49:43.197Z,101048.99
2022-08-30T13:52:57.119Z,101051.44
2022-08-30T13:56:31.904Z,101049.34
2022-08-30T13:59:57.366Z,101052.48
2022-08-30T14:03:24.246Z,101050.69
2022-08-30T14:10:46.617Z,101042.96
2022-08-30T14:14:23.411Z,101039.04
2022-08-30T14:18:03.318Z,101038.40
2022-08-30T14:21:33.124Z,101044.40
2022-08-30T14:25:08.350Z,101043.42
2022-08-30T14:28:38.580Z,101045.89
2022-08-30T14:32:06.318Z,101044.98
2022-08-30T14:35:33.609Z,101041.34
2022-08-30T14:39:00.358Z,101040.73
2022-08-30T14:42:27.140Z,101043.87
2022-08-30T14:45:59.439Z,101034.60
2022-08-30T14:49:27.191Z,101042.83
2022-08-30T14:52:55.930Z,101037.41
2022-08-30T14:56:24.914Z,101032.60
2022-08-30T14:59:52.330Z,101031.32
2022-08-30T15:03:20.960Z,101028.41
2022-08-30T15:06:51.923Z,101028.30
2022-08-30T15:10:21.426Z,101028.23
2022-08-30T15:13:54.525Z,101022.36
2022-08-30T15:17:21.681Z,101030.33
2022-08-30T15:20:52.366Z,101032.62
2022-08-30T15:24:30.019Z,101035.64
2022-08-30T15:27:59.176Z,101035.29
2022-08-30T15:31:29.658Z,101038.34
2022-08-30T15:34:57.998Z,101039.58
2022-08-30T15:38:25.111Z,101044.45
2022-08-30T15:41:57.194Z,101047.98
2022-08-30T15:45:27.015Z,101048.93
2022-08-30T15:48:57.083Z,101046.85
2022-08-30T15:52:29.522Z,101047.19
2022-08-30T15:55:57.438Z,101051.47
2022-08-30T15:59:27.907Z,101051.73
2022-08-30T16:02:56.969Z,101049.05
2022-08-30T16:06:30.439Z,101054.46
2022-08-30T16:09:58.965Z,101053.85
2022-08-30T16:13:36.393Z,101057.98
2022-08-30T16:17:06.799Z,101061.31
2022-08-30T16:20:36.418Z,101063.45
2022-08-30T16:24:06.698Z,101064.41
2022-08-30T16:27:34.319Z,101063.33
2022-08-30T16:31:05.495Z,101061.30
2022-08-30T16:34:35.820Z,101059.18
2022-08-30T16:38:05.814Z,101056.60
2022-08-30T16:41:39.990Z,101062.14
2022-08-30T16:45:12.937Z,101059.13
2022-08-30T16:48:42.247Z,101060.05
2022-08-30T16:52:11.747Z,101061.95
2022-08-30T16:55:40.371Z,101065.13
2022-08-30T16:59:11.617Z,101065.26
2022-08-30T17:02:39.565Z,101067.02
2022-08-30T17:06:07.504Z,101071.67
2022-08-30T17:09:35.842Z,101075.42
2022-08-30T17:13:03.285Z,101074.44
2022-08-30T17:16:41.379Z,101078.98
2022-08-30T17:20:12.343Z,101083.10
2022-08-30T17:23:39.902Z,101084.44
2022-08-30T17:27:09.625Z,101083.28
2022-08-30T17:30:38.101Z,101089.21
2022-08-30T17:34:07.572Z,101090.91
2022-08-30T17:37:37.530Z,101091.83
2022-08-30T17:41:09.377Z,101098.52
2022-08-30T17:44:42.416Z,101103.65
2022-08-30T17:48:10.589Z,101107.70
2022-08-30T17:51:43.098Z,101113.66
2022-08-30T17:55:11.771Z,101117.30
2022-08-30T17:58:42.444Z,101115.54
2022-08-30T18:02:11.533Z,101120.88
2022-08-30T18:05:44.288Z,101123.64
2022-08-30T18:09:15.284Z,101126.08
2022-08-30T18:12:43.052Z,101131.20
2022-08-30T18:16:14.562Z,101133.17
2022-08-30T18:19:51.159Z,101135.65
2022-08-30T18:23:20.400Z,101135.58
2022-08-30T18:26:50.643Z,101137.52
2022-08-30T18:30:20.038Z,101140.23
2022-08-30T18:33:57.212Z,101141.92
2022-08-30T18:37:28.658Z,101143.91
2022-08-30T18:41:02.651Z,101147.08
2022-08-30T18:44:34.163Z,101147.07
2022-08-30T18:48:02.070Z,101143.20
2022-08-30T18:51:31.906Z,101147.17
2022-08-30T18:55:01.294Z,101150.59
2022-08-30T18:58:44.581Z,101151.52
2022-08-30T19:02:19.134Z,101153.65
2022-08-30T19:05:57.531Z,101152.91
2022-08-30T19:09:43.130Z,101157.80
2022-08-30T19:13:26.503Z,101157.64
2022-08-30T19:17:06.051Z,101156.54
2022-08-30T19:20:38.349Z,101160.34
2022-08-30T19:24:12.769Z,101159.95
2022-08-30T19:27:55.299Z,101159.96
2022-08-30T19:31:59.988Z,101158.02
2022-08-30T19:35:35.574Z,101158.73
2022-08-30T19:39:06.067Z,101159.23
2022-08-30T19:42:43.382Z,101159.52
2022-08-30T19:46:17.052Z,101164.11
2022-08-30T19:49:46.012Z,101166.52
2022-08-30T19:53:25.347Z,101166.11
2022-08-30T19:56:53.769Z,101165.01
2022-08-30T20:00:23.608Z,101164.27
2022-08-30T20:03:54.049Z,101163.90
2022-08-30T20:07:34.313Z,101169.19
2022-08-30T20:11:03.613Z,101170.89
2022-08-30T20:14:35.380Z,101171.27
2022-08-30T20:18:13.387Z,101168.14
2022-08-30T20:21:46.695Z,101162.27
2022-08-30T20:25:19.139Z,101161.77
2022-08-30T20:28:52.753Z,101160.27
2022-08-30T20:32:23.968Z,101162.62
2022-08-30T20:35:54.234Z,101163.20
2022-08-30T20:39:26.020Z,101164.11
2022-08-30T20:42:55.398Z,101165.64
2022-08-30T20:46:27.721Z,101166.18
2022-08-30T20:50:00.719Z,101166.75
2022-08-30T20:53:29.342Z,101169.27
2022-08-30T20:56:57.789Z,101172.83
2022-08-30T21:00:26.521Z,101174.46
2022-08-30T21:03:54.105Z,101174.27
2022-08-30T21:07:30.126Z,101176.35
2022-08-30T21:10:59.160Z,101175.08
2022-08-30T21:14:32.392Z,101176.43
2022-08-30T21:18:02.239Z,101178.36
2022-08-30T21:21:30.669Z,101179.30
2022-08-30T21:24:58.102Z,101188.19
2022-08-30T21:28:27.539Z,101194.71
2022-08-30T21:32:04.022Z,101194.25
2022-08-30T21:35:51.311Z,101193.39
2022-08-30T21:39:24.641Z,101186.26
2022-08-30T21:42:54.074Z,101188.96
2022-08-30T21:46:21.008Z,101183.73
2022-08-30T21:49:48.229Z,101188.15
2022-08-30T21:53:17.151Z,101191.55
2022-08-30T21:56:46.562Z,101185.05
2022-08-30T22:00:20.682Z,101180.64
2022-08-30T22:03:48.689Z,101183.13
2022-08-30T22:07:16.665Z,101183.86
2022-08-30T22:10:45.046Z,101182.63
2022-08-30T22:14:14.591Z,101182.09
2022-08-30T22:17:45.190Z,101178.42
2022-08-30T22:21:14.479Z,101182.63
2022-08-30T22:24:41.830Z,101183.61
2022-08-30T22:28:09.033Z,101181.80
2022-08-30T22:31:37.026Z,101181.63
2022-08-30T22:35:10.584Z,101177.17
2022-08-30T22:38:37.411Z,101174.67
2022-08-30T22:42:10.051Z,101180.09
2022-08-30T22:45:37.280Z,101185.54
2022-08-30T22:49:05.318Z,101183.30
2022-08-30T22:52:32.828Z,101186.23
2022-08-30T22:56:00.642Z,101181.12
2022-08-30T22:59:31.557Z,101176.05
2022-08-30T23:02:59.474Z,101180.23
2022-08-30T23:06:29.781Z,101182.84
2022-08-30T23:10:00.236Z,101185.77
2022-08-30T23:13:27.858Z,101187.30
2022-08-30T23:16:55.010Z,101187.33
2022-08-30T23:20:24.098Z,101190.66
2022-08-30T23:24:09.095Z,101187.83
2022-08-30T23:27:55.479Z,101192.33
2022-08-30T23:31:40.596Z,101189.96
2022-08-30T23:35:29.419Z,101189.86
2022-08-30T23:39:15.014Z,101190.17
2022-08-30T23:42:59.682Z,101192.52
2022-08-30T23:46:44.349Z,101192.50
2022-08-30T23:50:29.936Z,101196.50
2022-08-30T23:54:13.994Z,101196.30
2022-08-30T23:57:58.950Z,101203.52
